Nearby METAR Reports

 

KKLS - Kelso Longveiw, Washington, USA
Distance from station: ESE 7mi, 11km
Updated: Sun, Jul-22-2018 8:56pm PDT
Clear
Clear
 Wind from WNW
Wind: WNW 6 mph , 9 km/h
Temperature: 75°F , 24°C
Dew Point: 61°F , 16°C
Humidity: 61%
Barometer: 30.06 inHg , 1017.9 hPa
Clouds: Clear
Visibility: 10 miles , 16 km
2018/07/23 03:56 KKLS 230356Z AUTO 30005KT 10SM CLR 24/16 A3006 RMK AO2 SLP184 T02440156
KSPB - Scappoose, Oregon, USA
Distance from station: SSE 29mi, 46km
Updated: Sun, Jul-22-2018 8:53pm PDT
Clear
Clear
 Wind from NW
Wind: NW 5 mph , 7 km/h
Temperature: 82°F , 28°C
Dew Point: 54°F , 12°C
Humidity: 37%
Barometer: 30.02 inHg , 1016.6 hPa
Clouds: Clear
Visibility: 10 miles , 16 km
2018/07/23 03:53 KSPB 230353Z AUTO 32004KT 10SM CLR 28/12 A3002 RMK AO2 SLP164 T02780117
 
KCLS - Chehalis Central, Washington, USA
Distance from station: N 36mi, 58km
Updated: Sun, Jul-22-2018 8:55pm PDT
Clear
Clear
 Wind from NW
Wind: NW 3 mph , 6 km/h
Temperature: 79°F , 26°C
Dew Point: 57°F , 14°C
Humidity: 48%
Barometer: 30.08 inHg , 1018.6 hPa
Clouds: Clear
Visibility: 10 miles , 16 km
2018/07/23 03:55 KCLS 230355Z AUTO 31003KT 10SM CLR 26/14 A3008 RMK AO2
KAST - Astoria, Oregon, USA
Distance from station: W 41mi, 66km
Updated: Sun, Jul-22-2018 8:55pm PDT
Clear
Clear
 Wind from SSE
Wind: SSE 9 mph , 15 km/h
Temperature: 57°F , 14°C
Dew Point: 54°F , 12°C
Humidity: 88%
Barometer: 30.11 inHg , 1019.6 hPa
Clouds: Clear
Visibility: 10 miles , 16 km
2018/07/23 03:55 KAST 230355Z AUTO 16008KT 10SM CLR 14/12 A3011 RMK AO2 SLP195 T01390122
 
KVUO - Vancouver, Washington, USA
Distance from station: SSE 42mi, 68km
Updated: Sun, Jul-22-2018 8:53pm PDT
Clear
Clear
 Wind from NW
Wind: NW 6 mph , 9 km/h
Temperature: 86°F , 30°C
Dew Point: 52°F , 11°C
Humidity: 31%
Barometer: 30.01 inHg , 1016.3 hPa
Clouds: Clear
Visibility: 10 miles , 16 km
2018/07/23 03:53 KVUO 230353Z AUTO 32005KT 10SM CLR 30/11 A3001 RMK AO2 SLP163 T03000111
KHIO - Hillsboro/Portld, Oregon, USA
Distance from station: S 43mi, 69km
Updated: Sun, Jul-22-2018 8:53pm PDT
Clear
Clear
 Wind from N
Wind: N 7 mph , 11 km/h
Temperature: 82°F , 28°C
Dew Point: 54°F , 12°C
Humidity: 37%
Barometer: 30.02 inHg , 1016.6 hPa
Clouds: Clear
Visibility: 10 miles , 16 km
2018/07/23 03:53 KHIO 230353Z AUTO 35006KT 10SM CLR 28/12 A3002 RMK AO2 SLP164 T02780117 $
 
KPDX - Portland, Oregon, USA
Distance from station: SSE 44mi, 70km
Updated: Sun, Jul-22-2018 8:53pm PDT
Few Clouds
Few Clouds
 Wind from NW
Wind: NW 8 mph , 13 km/h
Temperature: 84°F , 29°C
Dew Point: 54°F , 12°C
Humidity: 35%
Barometer: 30.01 inHg , 1016.3 hPa
Clouds: Few Clouds
Visibility: 10 miles , 16 km
Cloud details: Few Clouds 20000 ft
2018/07/23 03:53 KPDX 230353Z 32007KT 10SM FEW200 29/12 A3001 RMK AO2 SLP163 T02890117